sensor_id;sensor_type;location;lat;lon;timestamp;P1;durP1;ratioP1;P2;durP2;ratioP2
10902;SDS011;5504;47.312;11.060;2023-07-30T00:01:41;2.13;;;1.93;;
10902;SDS011;5504;47.312;11.060;2023-07-30T00:04:07;2.80;;;2.30;;
10902;SDS011;5504;47.312;11.060;2023-07-30T00:06:32;5.30;;;2.30;;
10902;SDS011;5504;47.312;11.060;2023-07-30T00:08:58;2.07;;;1.90;;
10902;SDS011;5504;47.312;11.060;2023-07-30T00:11:23;2.43;;;2.23;;
10902;SDS011;5504;47.312;11.060;2023-07-30T00:13:50;3.33;;;2.53;;
10902;SDS011;5504;47.312;11.060;2023-07-30T00:16:15;2.47;;;2.27;;
10902;SDS011;5504;47.312;11.060;2023-07-30T00:18:41;5.10;;;2.40;;
10902;SDS011;5504;47.312;11.060;2023-07-30T00:21:07;3.20;;;2.43;;
10902;SDS011;5504;47.312;11.060;2023-07-30T00:23:32;3.20;;;2.30;;
10902;SDS011;5504;47.312;11.060;2023-07-30T00:25:58;3.13;;;2.40;;
10902;SDS011;5504;47.312;11.060;2023-07-30T00:28:24;3.50;;;2.17;;
10902;SDS011;5504;47.312;11.060;2023-07-30T00:30:49;3.53;;;2.30;;
10902;SDS011;5504;47.312;11.060;2023-07-30T00:33:15;2.70;;;2.20;;
10902;SDS011;5504;47.312;11.060;2023-07-30T00:35:41;2.90;;;2.03;;
10902;SDS011;5504;47.312;11.060;2023-07-30T00:38:06;2.83;;;2.40;;
10902;SDS011;5504;47.312;11.060;2023-07-30T00:40:32;3.50;;;2.40;;
10902;SDS011;5504;47.312;11.060;2023-07-30T00:42:58;4.03;;;3.17;;
10902;SDS011;5504;47.312;11.060;2023-07-30T00:45:23;3.30;;;3.00;;
10902;SDS011;5504;47.312;11.060;2023-07-30T00:47:49;3.20;;;2.90;;
10902;SDS011;5504;47.312;11.060;2023-07-30T00:50:15;3.43;;;2.70;;
10902;SDS011;5504;47.312;11.060;2023-07-30T00:52:42;4.30;;;2.60;;
10902;SDS011;5504;47.312;11.060;2023-07-30T00:55:08;3.30;;;2.80;;
10902;SDS011;5504;47.312;11.060;2023-07-30T00:57:35;3.07;;;2.30;;
10902;SDS011;5504;47.312;11.060;2023-07-30T01:00:02;3.57;;;2.40;;
10902;SDS011;5504;47.312;11.060;2023-07-30T01:02:31;3.53;;;2.50;;
10902;SDS011;5504;47.312;11.060;2023-07-30T01:04:57;3.43;;;2.57;;
10902;SDS011;5504;47.312;11.060;2023-07-30T01:07:25;5.70;;;2.90;;
10902;SDS011;5504;47.312;11.060;2023-07-30T01:09:51;5.07;;;2.57;;
10902;SDS011;5504;47.312;11.060;2023-07-30T01:12:17;2.80;;;2.20;;
10902;SDS011;5504;47.312;11.060;2023-07-30T01:14:43;3.70;;;2.40;;
10902;SDS011;5504;47.312;11.060;2023-07-30T01:17:11;2.90;;;2.33;;
10902;SDS011;5504;47.312;11.060;2023-07-30T01:19:37;2.60;;;2.40;;
10902;SDS011;5504;47.312;11.060;2023-07-30T01:22:03;4.47;;;2.50;;
10902;SDS011;5504;47.312;11.060;2023-07-30T01:24:29;2.87;;;2.40;;
10902;SDS011;5504;47.312;11.060;2023-07-30T01:26:55;2.67;;;2.47;;
10902;SDS011;5504;47.312;11.060;2023-07-30T01:29:32;2.73;;;2.40;;
10902;SDS011;5504;47.312;11.060;2023-07-30T01:32:02;3.80;;;2.80;;
10902;SDS011;5504;47.312;11.060;2023-07-30T01:34:32;3.73;;;2.87;;
10902;SDS011;5504;47.312;11.060;2023-07-30T01:37:00;5.37;;;3.23;;
10902;SDS011;5504;47.312;11.060;2023-07-30T01:39:27;3.93;;;2.90;;
10902;SDS011;5504;47.312;11.060;2023-07-30T01:41:53;3.47;;;2.83;;
10902;SDS011;5504;47.312;11.060;2023-07-30T01:44:20;3.83;;;3.20;;
10902;SDS011;5504;47.312;11.060;2023-07-30T01:46:45;4.27;;;2.80;;
10902;SDS011;5504;47.312;11.060;2023-07-30T01:49:11;3.73;;;2.70;;
10902;SDS011;5504;47.312;11.060;2023-07-30T01:51:37;3.10;;;2.70;;
10902;SDS011;5504;47.312;11.060;2023-07-30T01:54:03;3.50;;;2.87;;
10902;SDS011;5504;47.312;11.060;2023-07-30T01:56:28;3.23;;;2.57;;
10902;SDS011;5504;47.312;11.060;2023-07-30T01:58:54;3.20;;;2.77;;
10902;SDS011;5504;47.312;11.060;2023-07-30T02:01:20;3.63;;;3.00;;
10902;SDS011;5504;47.312;11.060;2023-07-30T02:03:45;4.43;;;2.80;;
10902;SDS011;5504;47.312;11.060;2023-07-30T02:06:11;3.43;;;3.00;;
10902;SDS011;5504;47.312;11.060;2023-07-30T02:08:37;3.57;;;2.83;;
10902;SDS011;5504;47.312;11.060;2023-07-30T02:11:03;4.80;;;2.60;;
10902;SDS011;5504;47.312;11.060;2023-07-30T02:13:29;3.10;;;2.80;;
10902;SDS011;5504;47.312;11.060;2023-07-30T02:15:54;3.53;;;2.83;;
10902;SDS011;5504;47.312;11.060;2023-07-30T02:18:20;5.40;;;2.80;;
10902;SDS011;5504;47.312;11.060;2023-07-30T02:20:46;3.70;;;2.70;;
10902;SDS011;5504;47.312;11.060;2023-07-30T02:23:13;3.60;;;2.70;;
10902;SDS011;5504;47.312;11.060;2023-07-30T02:25:40;2.90;;;2.60;;
10902;SDS011;5504;47.312;11.060;2023-07-30T02:28:06;4.67;;;2.47;;
10902;SDS011;5504;47.312;11.060;2023-07-30T02:30:32;3.47;;;2.87;;
10902;SDS011;5504;47.312;11.060;2023-07-30T02:32:59;4.30;;;2.50;;
10902;SDS011;5504;47.312;11.060;2023-07-30T02:35:24;3.03;;;2.77;;
10902;SDS011;5504;47.312;11.060;2023-07-30T02:37:50;3.20;;;2.43;;
10902;SDS011;5504;47.312;11.060;2023-07-30T02:40:16;2.60;;;2.40;;
10902;SDS011;5504;47.312;11.060;2023-07-30T02:42:42;2.87;;;2.53;;
10902;SDS011;5504;47.312;11.060;2023-07-30T02:45:08;3.67;;;2.57;;
10902;SDS011;5504;47.312;11.060;2023-07-30T02:47:33;2.90;;;2.60;;
10902;SDS011;5504;47.312;11.060;2023-07-30T02:49:59;2.83;;;2.40;;
10902;SDS011;5504;47.312;11.060;2023-07-30T02:52:25;3.03;;;2.53;;
10902;SDS011;5504;47.312;11.060;2023-07-30T02:54:51;2.70;;;2.50;;
10902;SDS011;5504;47.312;11.060;2023-07-30T02:57:17;2.63;;;2.43;;
10902;SDS011;5504;47.312;11.060;2023-07-30T02:59:42;3.10;;;2.80;;
10902;SDS011;5504;47.312;11.060;2023-07-30T03:02:08;3.30;;;2.60;;
10902;SDS011;5504;47.312;11.060;2023-07-30T03:04:34;2.77;;;2.50;;
10902;SDS011;5504;47.312;11.060;2023-07-30T03:07:00;2.93;;;2.63;;
10902;SDS011;5504;47.312;11.060;2023-07-30T03:09:26;3.60;;;2.87;;
10902;SDS011;5504;47.312;11.060;2023-07-30T03:11:52;3.40;;;3.10;;
10902;SDS011;5504;47.312;11.060;2023-07-30T03:14:18;2.90;;;2.70;;
10902;SDS011;5504;47.312;11.060;2023-07-30T03:16:46;2.97;;;2.73;;
10902;SDS011;5504;47.312;11.060;2023-07-30T03:19:12;2.80;;;2.60;;
10902;SDS011;5504;47.312;11.060;2023-07-30T03:21:38;4.57;;;3.57;;
10902;SDS011;5504;47.312;11.060;2023-07-30T03:24:03;3.30;;;3.00;;
10902;SDS011;5504;47.312;11.060;2023-07-30T03:26:29;3.47;;;3.17;;
10902;SDS011;5504;47.312;11.060;2023-07-30T03:28:55;4.23;;;2.93;;
10902;SDS011;5504;47.312;11.060;2023-07-30T03:31:21;3.20;;;2.90;;
10902;SDS011;5504;47.312;11.060;2023-07-30T03:33:46;3.33;;;3.03;;
10902;SDS011;5504;47.312;11.060;2023-07-30T03:36:12;3.67;;;3.33;;
10902;SDS011;5504;47.312;11.060;2023-07-30T03:38:39;4.33;;;2.80;;
10902;SDS011;5504;47.312;11.060;2023-07-30T03:41:05;3.30;;;2.77;;
10902;SDS011;5504;47.312;11.060;2023-07-30T03:43:32;3.30;;;3.00;;
10902;SDS011;5504;47.312;11.060;2023-07-30T03:45:58;3.33;;;3.03;;
10902;SDS011;5504;47.312;11.060;2023-07-30T03:48:23;3.63;;;3.17;;
10902;SDS011;5504;47.312;11.060;2023-07-30T03:50:49;3.40;;;3.00;;
10902;SDS011;5504;47.312;11.060;2023-07-30T03:53:15;3.40;;;3.10;;
10902;SDS011;5504;47.312;11.060;2023-07-30T03:55:41;3.03;;;2.83;;
10902;SDS011;5504;47.312;11.060;2023-07-30T03:58:06;3.43;;;3.07;;
10902;SDS011;5504;47.312;11.060;2023-07-30T04:00:32;3.17;;;2.80;;
10902;SDS011;5504;47.312;11.060;2023-07-30T04:02:58;3.07;;;2.77;;
10902;SDS011;5504;47.312;11.060;2023-07-30T04:05:24;3.10;;;2.80;;
10902;SDS011;5504;47.312;11.060;2023-07-30T04:07:49;3.30;;;3.00;;
10902;SDS011;5504;47.312;11.060;2023-07-30T04:10:15;3.50;;;3.20;;
10902;SDS011;5504;47.312;11.060;2023-07-30T04:12:41;3.17;;;2.97;;
10902;SDS011;5504;47.312;11.060;2023-07-30T04:15:07;3.30;;;2.83;;
10902;SDS011;5504;47.312;11.060;2023-07-30T04:17:33;3.30;;;3.00;;
10902;SDS011;5504;47.312;11.060;2023-07-30T04:20:02;2.80;;;2.60;;
10902;SDS011;5504;47.312;11.060;2023-07-30T04:22:29;3.10;;;2.80;;
10902;SDS011;5504;47.312;11.060;2023-07-30T04:24:55;3.40;;;3.10;;
10902;SDS011;5504;47.312;11.060;2023-07-30T04:27:21;4.33;;;2.90;;
10902;SDS011;5504;47.312;11.060;2023-07-30T04:29:46;3.27;;;2.97;;
10902;SDS011;5504;47.312;11.060;2023-07-30T04:32:12;3.60;;;2.80;;
10902;SDS011;5504;47.312;11.060;2023-07-30T04:34:38;3.20;;;2.90;;
10902;SDS011;5504;47.312;11.060;2023-07-30T04:37:04;3.47;;;3.00;;
10902;SDS011;5504;47.312;11.060;2023-07-30T04:39:31;3.10;;;2.80;;
10902;SDS011;5504;47.312;11.060;2023-07-30T04:41:57;3.37;;;3.07;;
10902;SDS011;5504;47.312;11.060;2023-07-30T04:44:23;3.23;;;2.87;;
10902;SDS011;5504;47.312;11.060;2023-07-30T04:46:49;3.33;;;3.03;;
10902;SDS011;5504;47.312;11.060;2023-07-30T04:49:15;4.37;;;3.10;;
10902;SDS011;5504;47.312;11.060;2023-07-30T04:51:40;3.87;;;3.40;;
10902;SDS011;5504;47.312;11.060;2023-07-30T04:54:06;3.80;;;2.90;;
10902;SDS011;5504;47.312;11.060;2023-07-30T04:56:32;3.30;;;3.00;;
10902;SDS011;5504;47.312;11.060;2023-07-30T04:58:58;5.67;;;3.20;;
10902;SDS011;5504;47.312;11.060;2023-07-30T05:01:24;4.30;;;3.10;;
10902;SDS011;5504;47.312;11.060;2023-07-30T05:03:50;3.53;;;3.20;;
10902;SDS011;5504;47.312;11.060;2023-07-30T05:06:15;4.57;;;3.30;;
10902;SDS011;5504;47.312;11.060;2023-07-30T05:08:41;3.67;;;3.23;;
10902;SDS011;5504;47.312;11.060;2023-07-30T05:11:07;3.80;;;3.40;;
10902;SDS011;5504;47.312;11.060;2023-07-30T05:13:33;3.83;;;3.40;;
10902;SDS011;5504;47.312;11.060;2023-07-30T05:15:58;3.10;;;2.90;;
10902;SDS011;5504;47.312;11.060;2023-07-30T05:18:24;3.60;;;2.50;;
10902;SDS011;5504;47.312;11.060;2023-07-30T05:20:50;4.13;;;2.50;;
10902;SDS011;5504;47.312;11.060;2023-07-30T05:23:16;3.40;;;3.13;;
10902;SDS011;5504;47.312;11.060;2023-07-30T05:25:41;4.57;;;3.10;;
10902;SDS011;5504;47.312;11.060;2023-07-30T05:28:07;3.70;;;3.30;;
10902;SDS011;5504;47.312;11.060;2023-07-30T05:30:33;3.50;;;3.20;;
10902;SDS011;5504;47.312;11.060;2023-07-30T05:32:58;3.10;;;2.80;;
10902;SDS011;5504;47.312;11.060;2023-07-30T05:35:24;2.73;;;2.53;;
10902;SDS011;5504;47.312;11.060;2023-07-30T05:37:50;2.93;;;2.73;;
10902;SDS011;5504;47.312;11.060;2023-07-30T05:40:16;2.93;;;2.63;;
10902;SDS011;5504;47.312;11.060;2023-07-30T05:42:41;3.00;;;2.70;;
10902;SDS011;5504;47.312;11.060;2023-07-30T05:45:07;3.33;;;2.53;;
10902;SDS011;5504;47.312;11.060;2023-07-30T05:47:33;3.00;;;2.70;;
10902;SDS011;5504;47.312;11.060;2023-07-30T05:49:59;3.25;;;2.90;;
10902;SDS011;5504;47.312;11.060;2023-07-30T05:52:25;2.88;;;2.67;;
10902;SDS011;5504;47.312;11.060;2023-07-30T05:54:50;3.97;;;2.65;;
10902;SDS011;5504;47.312;11.060;2023-07-30T05:57:16;2.95;;;2.50;;
10902;SDS011;5504;47.312;11.060;2023-07-30T05:59:42;3.25;;;2.45;;
10902;SDS011;5504;47.312;11.060;2023-07-30T06:02:08;2.60;;;2.40;;
10902;SDS011;5504;47.312;11.060;2023-07-30T06:04:33;2.65;;;2.45;;
10902;SDS011;5504;47.312;11.060;2023-07-30T06:06:59;3.03;;;2.72;;
10902;SDS011;5504;47.312;11.060;2023-07-30T06:09:26;2.50;;;2.22;;
10902;SDS011;5504;47.312;11.060;2023-07-30T06:11:51;2.28;;;2.08;;
10902;SDS011;5504;47.312;11.060;2023-07-30T06:14:17;2.63;;;1.90;;
10902;SDS011;5504;47.312;11.060;2023-07-30T06:16:43;2.15;;;2.00;;
10902;SDS011;5504;47.312;11.060;2023-07-30T06:19:09;2.72;;;2.10;;
10902;SDS011;5504;47.312;11.060;2023-07-30T06:21:35;2.00;;;1.90;;
10902;SDS011;5504;47.312;11.060;2023-07-30T06:24:00;2.55;;;1.90;;
10902;SDS011;5504;47.312;11.060;2023-07-30T06:26:26;3.55;;;2.60;;
10902;SDS011;5504;47.312;11.060;2023-07-30T06:28:52;2.30;;;2.10;;
10902;SDS011;5504;47.312;11.060;2023-07-30T06:31:17;2.33;;;2.10;;
10902;SDS011;5504;47.312;11.060;2023-07-30T06:33:43;2.30;;;2.10;;
10902;SDS011;5504;47.312;11.060;2023-07-30T06:36:09;4.05;;;2.22;;
10902;SDS011;5504;47.312;11.060;2023-07-30T06:38:34;2.00;;;1.85;;
10902;SDS011;5504;47.312;11.060;2023-07-30T06:41:00;2.45;;;2.25;;
10902;SDS011;5504;47.312;11.060;2023-07-30T06:43:26;2.20;;;2.05;;
10902;SDS011;5504;47.312;11.060;2023-07-30T06:45:52;2.40;;;2.20;;
10902;SDS011;5504;47.312;11.060;2023-07-30T06:48:18;2.42;;;2.22;;
10902;SDS011;5504;47.312;11.060;2023-07-30T06:50:44;4.25;;;2.10;;
10902;SDS011;5504;47.312;11.060;2023-07-30T06:53:10;2.10;;;2.00;;
10902;SDS011;5504;47.312;11.060;2023-07-30T06:55:35;2.75;;;1.83;;
10902;SDS011;5504;47.312;11.060;2023-07-30T06:58:01;2.50;;;2.30;;
10902;SDS011;5504;47.312;11.060;2023-07-30T07:00:27;2.22;;;2.03;;
10902;SDS011;5504;47.312;11.060;2023-07-30T07:02:52;2.88;;;2.28;;
10902;SDS011;5504;47.312;11.060;2023-07-30T07:05:18;2.00;;;1.90;;
10902;SDS011;5504;47.312;11.060;2023-07-30T07:07:44;2.08;;;1.88;;
10902;SDS011;5504;47.312;11.060;2023-07-30T07:10:10;1.80;;;1.70;;
10902;SDS011;5504;47.312;11.060;2023-07-30T07:12:36;2.00;;;1.90;;
10902;SDS011;5504;47.312;11.060;2023-07-30T07:15:03;1.83;;;1.73;;
10902;SDS011;5504;47.312;11.060;2023-07-30T07:17:29;2.17;;;1.98;;
10902;SDS011;5504;47.312;11.060;2023-07-30T07:19:56;2.10;;;1.98;;
10902;SDS011;5504;47.312;11.060;2023-07-30T07:22:22;2.63;;;2.10;;
10902;SDS011;5504;47.312;11.060;2023-07-30T07:24:48;2.33;;;2.13;;
10902;SDS011;5504;47.312;11.060;2023-07-30T07:27:13;2.20;;;2.00;;
10902;SDS011;5504;47.312;11.060;2023-07-30T07:29:39;1.85;;;1.75;;
10902;SDS011;5504;47.312;11.060;2023-07-30T07:32:05;2.15;;;1.95;;
10902;SDS011;5504;47.312;11.060;2023-07-30T07:34:31;2.22;;;2.03;;
10902;SDS011;5504;47.312;11.060;2023-07-30T07:36:56;1.98;;;1.88;;
10902;SDS011;5504;47.312;11.060;2023-07-30T07:39:22;2.25;;;1.90;;
10902;SDS011;5504;47.312;11.060;2023-07-30T07:41:48;2.10;;;2.00;;
10902;SDS011;5504;47.312;11.060;2023-07-30T07:44:14;2.35;;;1.98;;
10902;SDS011;5504;47.312;11.060;2023-07-30T07:46:40;1.80;;;1.70;;
10902;SDS011;5504;47.312;11.060;2023-07-30T07:49:06;2.47;;;2.00;;
10902;SDS011;5504;47.312;11.060;2023-07-30T07:51:33;2.03;;;1.70;;
10902;SDS011;5504;47.312;11.060;2023-07-30T07:53:59;2.55;;;2.22;;
10902;SDS011;5504;47.312;11.060;2023-07-30T07:56:25;2.38;;;2.17;;
10902;SDS011;5504;47.312;11.060;2023-07-30T07:58:50;2.97;;;1.90;;
10902;SDS011;5504;47.312;11.060;2023-07-30T08:01:16;2.20;;;1.95;;
10902;SDS011;5504;47.312;11.060;2023-07-30T08:03:42;3.88;;;1.75;;
10902;SDS011;5504;47.312;11.060;2023-07-30T08:06:07;2.22;;;2.10;;
10902;SDS011;5504;47.312;11.060;2023-07-30T08:08:33;2.33;;;2.15;;
10902;SDS011;5504;47.312;11.060;2023-07-30T08:11:02;2.33;;;2.13;;
10902;SDS011;5504;47.312;11.060;2023-07-30T08:13:33;2.55;;;2.35;;
10902;SDS011;5504;47.312;11.060;2023-07-30T08:15:59;2.20;;;2.00;;
10902;SDS011;5504;47.312;11.060;2023-07-30T08:18:25;2.28;;;2.08;;
10902;SDS011;5504;47.312;11.060;2023-07-30T08:20:51;2.45;;;2.25;;
10902;SDS011;5504;47.312;11.060;2023-07-30T08:23:17;2.10;;;1.92;;
10902;SDS011;5504;47.312;11.060;2023-07-30T08:25:42;1.90;;;1.80;;
10902;SDS011;5504;47.312;11.060;2023-07-30T08:28:08;2.22;;;2.03;;
10902;SDS011;5504;47.312;11.060;2023-07-30T08:30:34;2.10;;;1.90;;
10902;SDS011;5504;47.312;11.060;2023-07-30T08:33:00;2.30;;;2.10;;
10902;SDS011;5504;47.312;11.060;2023-07-30T08:35:25;1.98;;;1.88;;
10902;SDS011;5504;47.312;11.060;2023-07-30T08:37:54;1.75;;;1.65;;
10902;SDS011;5504;47.312;11.060;2023-07-30T08:40:23;2.50;;;2.10;;
10902;SDS011;5504;47.312;11.060;2023-07-30T08:42:53;2.78;;;2.15;;
10902;SDS011;5504;47.312;11.060;2023-07-30T08:45:19;2.03;;;1.90;;
10902;SDS011;5504;47.312;11.060;2023-07-30T08:47:45;2.00;;;1.90;;
10902;SDS011;5504;47.312;11.060;2023-07-30T08:50:11;2.30;;;2.10;;
10902;SDS011;5504;47.312;11.060;2023-07-30T08:52:37;2.17;;;2.00;;
10902;SDS011;5504;47.312;11.060;2023-07-30T08:55:04;2.00;;;1.80;;
10902;SDS011;5504;47.312;11.060;2023-07-30T08:57:31;2.58;;;1.73;;
10902;SDS011;5504;47.312;11.060;2023-07-30T09:00:05;1.80;;;1.70;;
10902;SDS011;5504;47.312;11.060;2023-07-30T09:05:04;1.80;;;1.70;;
10902;SDS011;5504;47.312;11.060;2023-07-30T09:07:30;1.90;;;1.77;;
10902;SDS011;5504;47.312;11.060;2023-07-30T09:09:56;2.22;;;2.00;;
10902;SDS011;5504;47.312;11.060;2023-07-30T09:12:29;2.15;;;1.80;;
10902;SDS011;5504;47.312;11.060;2023-07-30T09:14:59;1.80;;;1.65;;
10902;SDS011;5504;47.312;11.060;2023-07-30T09:17:26;2.00;;;1.90;;
10902;SDS011;5504;47.312;11.060;2023-07-30T09:19:52;2.10;;;2.00;;
10902;SDS011;5504;47.312;11.060;2023-07-30T09:22:31;2.28;;;2.08;;
10902;SDS011;5504;47.312;11.060;2023-07-30T09:25:01;2.58;;;1.90;;
10902;SDS011;5504;47.312;11.060;2023-07-30T09:27:27;2.63;;;2.10;;
10902;SDS011;5504;47.312;11.060;2023-07-30T09:29:54;2.40;;;2.10;;
10902;SDS011;5504;47.312;11.060;2023-07-30T09:32:25;1.98;;;1.88;;
10902;SDS011;5504;47.312;11.060;2023-07-30T09:34:55;2.90;;;2.00;;
10902;SDS011;5504;47.312;11.060;2023-07-30T09:37:30;2.00;;;1.80;;
10902;SDS011;5504;47.312;11.060;2023-07-30T09:39:57;2.45;;;1.80;;
10902;SDS011;5504;47.312;11.060;2023-07-30T09:42:26;1.83;;;1.73;;
10902;SDS011;5504;47.312;11.060;2023-07-30T09:44:52;2.20;;;2.00;;
10902;SDS011;5504;47.312;11.060;2023-07-30T09:47:19;1.70;;;1.60;;
10902;SDS011;5504;47.312;11.060;2023-07-30T09:49:45;1.90;;;1.80;;
10902;SDS011;5504;47.312;11.060;2023-07-30T09:52:11;2.88;;;1.90;;
10902;SDS011;5504;47.312;11.060;2023-07-30T09:54:38;2.38;;;1.80;;
10902;SDS011;5504;47.312;11.060;2023-07-30T09:57:05;2.42;;;1.90;;
10902;SDS011;5504;47.312;11.060;2023-07-30T09:59:31;4.13;;;2.10;;
10902;SDS011;5504;47.312;11.060;2023-07-30T10:01:57;1.92;;;1.83;;
10902;SDS011;5504;47.312;11.060;2023-07-30T10:04:23;1.80;;;1.70;;
10902;SDS011;5504;47.312;11.060;2023-07-30T10:06:53;2.05;;;1.95;;
10902;SDS011;5504;47.312;11.060;2023-07-30T10:09:23;2.00;;;1.80;;
10902;SDS011;5504;47.312;11.060;2023-07-30T10:11:52;1.80;;;1.70;;
10902;SDS011;5504;47.312;11.060;2023-07-30T10:14:20;1.85;;;1.75;;
10902;SDS011;5504;47.312;11.060;2023-07-30T10:16:54;2.10;;;1.90;;
10902;SDS011;5504;47.312;11.060;2023-07-30T10:19:25;2.28;;;2.08;;
10902;SDS011;5504;47.312;11.060;2023-07-30T10:21:53;2.10;;;1.90;;
10902;SDS011;5504;47.312;11.060;2023-07-30T10:24:37;2.35;;;1.75;;
10902;SDS011;5504;47.312;11.060;2023-07-30T10:27:07;2.95;;;1.95;;
10902;SDS011;5504;47.312;11.060;2023-07-30T10:29:35;1.98;;;1.88;;
10902;SDS011;5504;47.312;11.060;2023-07-30T10:32:03;1.70;;;1.60;;
10902;SDS011;5504;47.312;11.060;2023-07-30T10:34:47;1.75;;;1.65;;
10902;SDS011;5504;47.312;11.060;2023-07-30T10:37:22;1.58;;;1.48;;
10902;SDS011;5504;47.312;11.060;2023-07-30T10:39:50;1.50;;;1.40;;
10902;SDS011;5504;47.312;11.060;2023-07-30T10:42:16;1.67;;;1.58;;
10902;SDS011;5504;47.312;11.060;2023-07-30T10:44:43;1.60;;;1.50;;
10902;SDS011;5504;47.312;11.060;2023-07-30T10:47:10;1.45;;;1.35;;
10902;SDS011;5504;47.312;11.060;2023-07-30T10:49:36;1.92;;;1.50;;
10902;SDS011;5504;47.312;11.060;2023-07-30T10:52:03;1.88;;;1.77;;
10902;SDS011;5504;47.312;11.060;2023-07-30T10:54:33;2.30;;;1.63;;
10902;SDS011;5504;47.312;11.060;2023-07-30T10:56:59;2.10;;;1.52;;
10902;SDS011;5504;47.312;11.060;2023-07-30T10:59:25;1.73;;;1.63;;
10902;SDS011;5504;47.312;11.060;2023-07-30T11:01:52;2.17;;;1.80;;
10902;SDS011;5504;47.312;11.060;2023-07-30T11:04:18;1.85;;;1.75;;
10902;SDS011;5504;47.312;11.060;2023-07-30T11:06:46;1.83;;;1.60;;
10902;SDS011;5504;47.312;11.060;2023-07-30T11:09:20;1.80;;;1.70;;
10902;SDS011;5504;47.312;11.060;2023-07-30T11:11:50;1.70;;;1.50;;
10902;SDS011;5504;47.312;11.060;2023-07-30T11:14:17;1.42;;;1.30;;
10902;SDS011;5504;47.312;11.060;2023-07-30T11:16:48;2.55;;;1.60;;
10902;SDS011;5504;47.312;11.060;2023-07-30T11:19:18;1.50;;;1.40;;
10902;SDS011;5504;47.312;11.060;2023-07-30T11:21:45;1.65;;;1.55;;
10902;SDS011;5504;47.312;11.060;2023-07-30T11:24:12;1.65;;;1.55;;
10902;SDS011;5504;47.312;11.060;2023-07-30T11:26:38;1.50;;;1.40;;
10902;SDS011;5504;47.312;11.060;2023-07-30T11:29:16;1.40;;;1.30;;
10902;SDS011;5504;47.312;11.060;2023-07-30T11:31:46;2.00;;;1.40;;
10902;SDS011;5504;47.312;11.060;2023-07-30T11:34:13;1.38;;;1.27;;
10902;SDS011;5504;47.312;11.060;2023-07-30T11:36:40;1.50;;;1.40;;
10902;SDS011;5504;47.312;11.060;2023-07-30T11:39:06;1.50;;;1.40;;
10902;SDS011;5504;47.312;11.060;2023-07-30T11:41:33;1.33;;;1.23;;
10902;SDS011;5504;47.312;11.060;2023-07-30T11:43:59;2.10;;;1.10;;
10902;SDS011;5504;47.312;11.060;2023-07-30T11:46:25;1.40;;;1.30;;
10902;SDS011;5504;47.312;11.060;2023-07-30T11:48:53;1.40;;;1.30;;
10902;SDS011;5504;47.312;11.060;2023-07-30T11:51:36;1.77;;;1.30;;
10902;SDS011;5504;47.312;11.060;2023-07-30T11:54:02;1.50;;;1.40;;
10902;SDS011;5504;47.312;11.060;2023-07-30T11:56:28;1.38;;;1.27;;
10902;SDS011;5504;47.312;11.060;2023-07-30T11:58:56;2.08;;;1.55;;
10902;SDS011;5504;47.312;11.060;2023-07-30T12:01:26;1.50;;;1.40;;
10902;SDS011;5504;47.312;11.060;2023-07-30T12:03:58;1.58;;;1.48;;
10902;SDS011;5504;47.312;11.060;2023-07-30T12:09:17;1.73;;;1.63;;
10902;SDS011;5504;47.312;11.060;2023-07-30T12:14:56;1.70;;;1.60;;
10902;SDS011;5504;47.312;11.060;2023-07-30T12:17:15;1.60;;;1.50;;
10902;SDS011;5504;47.312;11.060;2023-07-30T12:19:41;1.80;;;1.70;;
10902;SDS011;5504;47.312;11.060;2023-07-30T12:22:07;2.88;;;1.80;;
10902;SDS011;5504;47.312;11.060;2023-07-30T12:24:33;1.65;;;1.55;;
10902;SDS011;5504;47.312;11.060;2023-07-30T12:26:59;1.98;;;1.80;;
10902;SDS011;5504;47.312;11.060;2023-07-30T12:29:25;1.70;;;1.60;;
10902;SDS011;5504;47.312;11.060;2023-07-30T12:31:51;1.73;;;1.63;;
10902;SDS011;5504;47.312;11.060;2023-07-30T12:34:18;1.67;;;1.58;;
10902;SDS011;5504;47.312;11.060;2023-07-30T12:36:45;1.80;;;1.70;;
10902;SDS011;5504;47.312;11.060;2023-07-30T12:39:11;2.17;;;1.67;;
10902;SDS011;5504;47.312;11.060;2023-07-30T12:41:36;1.80;;;1.70;;
10902;SDS011;5504;47.312;11.060;2023-07-30T12:44:02;2.38;;;1.58;;
10902;SDS011;5504;47.312;11.060;2023-07-30T12:46:29;1.60;;;1.50;;
10902;SDS011;5504;47.312;11.060;2023-07-30T12:48:57;1.77;;;1.67;;
10902;SDS011;5504;47.312;11.060;2023-07-30T12:51:28;1.70;;;1.60;;
10902;SDS011;5504;47.312;11.060;2023-07-30T12:53:54;2.55;;;1.80;;
10902;SDS011;5504;47.312;11.060;2023-07-30T12:56:19;1.85;;;1.75;;
10902;SDS011;5504;47.312;11.060;2023-07-30T12:58:45;1.90;;;1.80;;
10902;SDS011;5504;47.312;11.060;2023-07-30T13:01:11;2.22;;;1.92;;
10902;SDS011;5504;47.312;11.060;2023-07-30T13:03:37;1.90;;;1.80;;
10902;SDS011;5504;47.312;11.060;2023-07-30T13:06:04;2.10;;;1.85;;
10902;SDS011;5504;47.312;11.060;2023-07-30T13:08:30;1.73;;;1.63;;
10902;SDS011;5504;47.312;11.060;2023-07-30T13:10:55;2.08;;;1.88;;
10902;SDS011;5504;47.312;11.060;2023-07-30T13:13:21;1.77;;;1.60;;
10902;SDS011;5504;47.312;11.060;2023-07-30T13:15:48;2.13;;;1.77;;
10902;SDS011;5504;47.312;11.060;2023-07-30T13:18:14;2.10;;;1.85;;
10902;SDS011;5504;47.312;11.060;2023-07-30T13:20:40;2.30;;;1.80;;
10902;SDS011;5504;47.312;11.060;2023-07-30T13:23:05;1.75;;;1.65;;
10902;SDS011;5504;47.312;11.060;2023-07-30T13:25:32;2.63;;;1.60;;
10902;SDS011;5504;47.312;11.060;2023-07-30T13:27:57;2.20;;;1.70;;
10902;SDS011;5504;47.312;11.060;2023-07-30T13:30:23;1.92;;;1.45;;
10902;SDS011;5504;47.312;11.060;2023-07-30T13:32:49;1.60;;;1.50;;
10902;SDS011;5504;47.312;11.060;2023-07-30T13:35:14;1.48;;;1.38;;
10902;SDS011;5504;47.312;11.060;2023-07-30T13:37:40;1.90;;;1.55;;
10902;SDS011;5504;47.312;11.060;2023-07-30T13:40:06;1.73;;;1.63;;
10902;SDS011;5504;47.312;11.060;2023-07-30T13:42:32;1.52;;;1.42;;
10902;SDS011;5504;47.312;11.060;2023-07-30T13:44:58;2.00;;;1.42;;
10902;SDS011;5504;47.312;11.060;2023-07-30T13:47:25;3.03;;;1.80;;
10902;SDS011;5504;47.312;11.060;2023-07-30T13:49:50;1.55;;;1.45;;
10902;SDS011;5504;47.312;11.060;2023-07-30T13:52:17;2.17;;;1.80;;
10902;SDS011;5504;47.312;11.060;2023-07-30T13:54:42;1.60;;;1.50;;
10902;SDS011;5504;47.312;11.060;2023-07-30T13:57:10;1.98;;;1.55;;
10902;SDS011;5504;47.312;11.060;2023-07-30T13:59:36;1.52;;;1.42;;
10902;SDS011;5504;47.312;11.060;2023-07-30T14:02:02;1.77;;;1.67;;
10902;SDS011;5504;47.312;11.060;2023-07-30T14:04:28;1.85;;;1.60;;
10902;SDS011;5504;47.312;11.060;2023-07-30T14:06:54;1.45;;;1.35;;
10902;SDS011;5504;47.312;11.060;2023-07-30T14:09:19;1.65;;;1.50;;
10902;SDS011;5504;47.312;11.060;2023-07-30T14:11:45;1.45;;;1.35;;
10902;SDS011;5504;47.312;11.060;2023-07-30T14:14:11;1.48;;;1.33;;
10902;SDS011;5504;47.312;11.060;2023-07-30T14:16:37;1.40;;;1.30;;
10902;SDS011;5504;47.312;11.060;2023-07-30T14:19:03;2.47;;;1.30;;
10902;SDS011;5504;47.312;11.060;2023-07-30T14:21:28;1.65;;;1.48;;
10902;SDS011;5504;47.312;11.060;2023-07-30T14:23:54;1.90;;;1.70;;
10902;SDS011;5504;47.312;11.060;2023-07-30T14:26:20;1.40;;;1.30;;
10902;SDS011;5504;47.312;11.060;2023-07-30T14:28:45;1.55;;;1.45;;
10902;SDS011;5504;47.312;11.060;2023-07-30T14:31:11;1.00;;;1.00;;
10902;SDS011;5504;47.312;11.060;2023-07-30T14:33:37;1.65;;;1.55;;
10902;SDS011;5504;47.312;11.060;2023-07-30T14:36:03;1.50;;;1.40;;
10902;SDS011;5504;47.312;11.060;2023-07-30T14:38:29;1.58;;;1.48;;
10902;SDS011;5504;47.312;11.060;2023-07-30T14:40:56;1.95;;;1.50;;
10902;SDS011;5504;47.312;11.060;2023-07-30T14:43:22;2.10;;;1.38;;
10902;SDS011;5504;47.312;11.060;2023-07-30T14:45:48;1.40;;;1.30;;
10902;SDS011;5504;47.312;11.060;2023-07-30T14:48:14;1.60;;;1.50;;
10902;SDS011;5504;47.312;11.060;2023-07-30T14:50:40;1.92;;;1.23;;
10902;SDS011;5504;47.312;11.060;2023-07-30T14:53:06;1.40;;;1.30;;